createdAt,value
2017-11-16T00:00:29.437Z,8.77
2017-11-16T00:02:56.994Z,8.71
2017-11-16T00:05:24.520Z,8.82
2017-11-16T00:07:52.111Z,8.79
2017-11-16T00:10:19.644Z,8.83
2017-11-16T00:12:47.183Z,8.87
2017-11-16T00:15:15.149Z,8.80
2017-11-16T00:17:42.674Z,8.76
2017-11-16T00:20:10.203Z,8.76
2017-11-16T00:22:38.163Z,8.83
2017-11-16T00:25:05.707Z,8.83
2017-11-16T00:27:33.225Z,8.78
2017-11-16T00:30:00.814Z,8.76
2017-11-16T00:32:28.332Z,8.78
2017-11-16T00:34:55.854Z,8.80
2017-11-16T00:37:23.903Z,8.81
2017-11-16T00:39:51.412Z,8.74
2017-11-16T00:42:18.943Z,8.81
2017-11-16T00:44:46.608Z,8.81
2017-11-16T00:47:14.143Z,8.88
2017-11-16T00:49:41.671Z,8.84
2017-11-16T00:52:09.226Z,8.84
2017-11-16T00:54:36.759Z,8.84
2017-11-16T00:57:04.489Z,8.84
2017-11-16T00:59:32.046Z,8.84
2017-11-16T01:01:59.580Z,8.88
2017-11-16T01:04:27.247Z,8.85
2017-11-16T01:06:54.769Z,8.86
2017-11-16T01:09:22.291Z,8.85
2017-11-16T01:11:50.033Z,8.76
2017-11-16T01:14:17.577Z,8.87
2017-11-16T01:16:45.115Z,8.73
2017-11-16T01:19:13.035Z,8.70
2017-11-16T01:21:40.576Z,8.89
2017-11-16T01:24:08.115Z,8.87
2017-11-16T01:26:35.702Z,8.77
2017-11-16T01:29:03.233Z,8.80
2017-11-16T01:31:30.767Z,8.87
2017-11-16T01:33:58.802Z,8.82
2017-11-16T01:36:26.334Z,8.79
2017-11-16T01:38:53.888Z,8.83
2017-11-16T01:41:21.456Z,8.91
2017-11-16T01:43:49.010Z,8.78
2017-11-16T01:46:16.567Z,8.69
2017-11-16T01:48:44.094Z,8.73
2017-11-16T01:51:11.675Z,8.71
2017-11-16T01:53:39.235Z,8.91
2017-11-16T01:56:06.790Z,8.85
2017-11-16T01:58:34.399Z,8.79
2017-11-16T02:01:01.959Z,8.77
2017-11-16T02:03:29.509Z,8.77
2017-11-16T02:05:57.326Z,8.85
2017-11-16T02:08:24.867Z,8.83
2017-11-16T02:10:52.426Z,8.84
2017-11-16T02:13:20.034Z,8.80
2017-11-16T02:15:47.575Z,8.85
2017-11-16T02:18:15.119Z,9.01
2017-11-16T02:20:42.885Z,8.92
2017-11-16T02:23:10.440Z,8.92
2017-11-16T02:25:38.006Z,8.92
2017-11-16T02:28:05.620Z,8.89
2017-11-16T02:30:33.186Z,8.98
2017-11-16T02:33:00.740Z,8.92
2017-11-16T02:35:28.739Z,8.90
2017-11-16T02:37:56.311Z,8.97
2017-11-16T02:40:23.888Z,8.96
2017-11-16T02:42:51.496Z,8.88
2017-11-16T02:45:19.052Z,9.14
2017-11-16T02:47:46.616Z,9.07
2017-11-16T02:50:14.394Z,9.12
2017-11-16T02:52:41.948Z,9.10
2017-11-16T02:55:09.515Z,9.03
2017-11-16T02:57:37.147Z,9.12
2017-11-16T03:00:04.691Z,9.09
2017-11-16T03:02:32.266Z,8.90
2017-11-16T03:04:59.837Z,8.87
2017-11-16T03:07:27.380Z,8.98
2017-11-16T03:09:55.163Z,8.92
2017-11-16T03:12:22.712Z,8.97
2017-11-16T03:14:50.266Z,8.91
2017-11-16T03:17:17.839Z,8.87
2017-11-16T03:19:45.384Z,8.90
2017-11-16T03:22:12.987Z,8.94
2017-11-16T03:24:40.551Z,8.87
2017-11-16T03:27:08.120Z,8.80
2017-11-16T03:29:35.853Z,8.85
2017-11-16T03:32:03.406Z,8.90
2017-11-16T03:34:30.925Z,8.96
2017-11-16T03:36:58.536Z,8.91
2017-11-16T03:39:26.063Z,9.00
2017-11-16T03:41:53.625Z,8.93
2017-11-16T03:44:21.309Z,8.84
2017-11-16T03:46:48.841Z,8.88
2017-11-16T03:49:16.378Z,8.89
2017-11-16T03:51:44.322Z,8.89
2017-11-16T03:54:11.851Z,9.10
2017-11-16T03:56:39.400Z,9.01
2017-11-16T03:59:07.151Z,8.91
2017-11-16T04:01:34.692Z,8.95
2017-11-16T04:04:02.237Z,8.95
2017-11-16T04:06:29.962Z,8.97
2017-11-16T04:08:57.495Z,9.01
2017-11-16T04:11:25.046Z,9.08
2017-11-16T04:13:52.606Z,9.03
2017-11-16T04:16:20.140Z,9.05
2017-11-16T04:18:47.834Z,8.92
2017-11-16T04:21:15.431Z,8.89
2017-11-16T04:23:42.987Z,8.94
2017-11-16T04:26:10.750Z,8.88
2017-11-16T04:28:38.269Z,9.05
2017-11-16T04:31:05.817Z,8.96
2017-11-16T04:33:33.576Z,9.03
2017-11-16T04:36:01.098Z,9.02
2017-11-16T04:38:28.637Z,8.99
2017-11-16T04:40:56.693Z,9.04
2017-11-16T04:43:24.228Z,8.90
2017-11-16T04:45:51.766Z,8.87
2017-11-16T04:48:19.368Z,8.99
2017-11-16T04:50:46.904Z,8.88
2017-11-16T04:53:14.444Z,8.90
2017-11-16T04:55:42.021Z,8.92
2017-11-16T04:58:09.545Z,8.97
2017-11-16T05:00:37.077Z,8.93
2017-11-16T05:03:04.700Z,8.94
2017-11-16T05:05:32.243Z,8.90
2017-11-16T05:08:00.077Z,8.90
2017-11-16T05:10:27.671Z,8.87
2017-11-16T05:12:55.244Z,8.87
2017-11-16T05:15:22.766Z,9.00
2017-11-16T05:17:50.292Z,8.98
2017-11-16T05:20:17.971Z,8.98
2017-11-16T05:22:45.517Z,8.91
2017-11-16T05:25:13.067Z,8.96
2017-11-16T05:27:40.639Z,9.00
2017-11-16T05:30:08.206Z,9.00
2017-11-16T05:32:35.721Z,8.90
2017-11-16T05:35:03.497Z,9.02
2017-11-16T05:37:31.038Z,8.98
2017-11-16T05:39:58.561Z,8.96
2017-11-16T05:42:26.666Z,8.98
2017-11-16T05:44:54.189Z,8.95
2017-11-16T05:47:21.704Z,8.97
2017-11-16T05:49:49.256Z,8.97
2017-11-16T05:52:16.862Z,8.92
2017-11-16T05:54:44.432Z,8.97
2017-11-16T05:57:11.948Z,8.92
2017-11-16T05:59:39.746Z,9.09
2017-11-16T06:02:07.290Z,9.16
2017-11-16T06:04:34.836Z,8.96
2017-11-16T06:07:02.428Z,9.00
2017-11-16T06:09:29.962Z,8.89
2017-11-16T06:11:57.481Z,8.94
2017-11-16T06:14:25.079Z,9.03
2017-11-16T06:16:52.613Z,9.03
2017-11-16T06:19:20.166Z,9.04
2017-11-16T06:21:47.717Z,9.02
2017-11-16T06:24:15.494Z,9.02
2017-11-16T06:26:43.024Z,9.02
2017-11-16T06:29:10.572Z,9.05
2017-11-16T06:31:38.237Z,8.98
2017-11-16T06:34:05.763Z,9.08
2017-11-16T06:36:33.285Z,9.02
2017-11-16T06:39:00.830Z,9.03
2017-11-16T06:41:28.357Z,8.88
2017-11-16T06:43:55.934Z,9.21
2017-11-16T06:46:23.585Z,9.02
2017-11-16T06:48:51.106Z,9.05
2017-11-16T06:51:18.762Z,9.07
2017-11-16T06:53:46.287Z,9.16
2017-11-16T06:56:13.802Z,9.17
2017-11-16T06:58:41.341Z,8.95
2017-11-16T07:01:08.894Z,8.95
2017-11-16T07:03:36.418Z,9.06
2017-11-16T07:06:03.942Z,9.04
2017-11-16T07:08:31.514Z,9.09
2017-11-16T07:10:59.033Z,8.98
2017-11-16T07:13:26.554Z,8.91
2017-11-16T07:15:54.098Z,8.98
2017-11-16T07:18:21.613Z,8.96
2017-11-16T07:20:49.156Z,8.87
2017-11-16T07:23:16.690Z,8.89
2017-11-16T07:25:44.234Z,9.06
2017-11-16T07:28:11.746Z,8.95
2017-11-16T07:30:39.742Z,8.85
2017-11-16T07:33:07.290Z,8.89
2017-11-16T07:35:34.809Z,8.97
2017-11-16T07:38:02.354Z,9.14
2017-11-16T07:40:29.980Z,9.09
2017-11-16T07:42:57.505Z,9.19
2017-11-16T07:45:25.039Z,9.01
2017-11-16T07:47:52.842Z,9.08
2017-11-16T07:50:20.411Z,9.09
2017-11-16T07:52:47.961Z,8.99
2017-11-16T07:55:15.530Z,9.26
2017-11-16T07:57:43.072Z,9.03
2017-11-16T08:00:10.590Z,8.95
2017-11-16T08:02:38.256Z,8.80
2017-11-16T08:05:05.794Z,8.94
2017-11-16T08:07:33.317Z,8.91
2017-11-16T08:10:00.863Z,8.94
2017-11-16T08:12:28.387Z,9.00
2017-11-16T08:14:55.994Z,8.97
2017-11-16T08:17:23.514Z,9.01
2017-11-16T08:19:51.050Z,8.94
2017-11-16T08:22:18.598Z,9.13
2017-11-16T08:24:46.257Z,9.00
2017-11-16T08:27:13.780Z,9.08
2017-11-16T08:29:41.301Z,9.12
2017-11-16T08:32:08.878Z,9.07
2017-11-16T08:34:36.397Z,8.94
2017-11-16T08:37:03.939Z,9.01
2017-11-16T08:39:31.500Z,9.06
2017-11-16T08:41:59.086Z,9.24
2017-11-16T08:44:26.633Z,9.28
2017-11-16T08:46:54.168Z,9.45
2017-11-16T08:49:21.974Z,9.28
2017-11-16T08:51:49.546Z,9.17
2017-11-16T08:54:17.108Z,9.18
2017-11-16T08:56:45.015Z,9.33
2017-11-16T08:59:12.557Z,9.37
2017-11-16T09:01:40.130Z,9.44
2017-11-16T09:04:07.697Z,9.63
2017-11-16T09:06:35.238Z,9.50
2017-11-16T09:09:02.861Z,9.47
2017-11-16T09:11:30.392Z,9.75
2017-11-16T09:13:58.708Z,9.57
2017-11-16T09:16:27.032Z,9.75
2017-11-16T09:18:54.588Z,9.81
2017-11-16T09:21:22.149Z,9.75
2017-11-16T09:23:49.730Z,9.69
2017-11-16T09:26:17.278Z,9.84
2017-11-16T09:28:44.838Z,9.59
2017-11-16T09:31:12.575Z,9.69
2017-11-16T09:33:40.131Z,9.64
2017-11-16T09:36:07.682Z,9.61
2017-11-16T09:38:35.389Z,9.79
2017-11-16T09:41:02.928Z,10.09
2017-11-16T09:43:30.454Z,10.01
2017-11-16T09:45:58.355Z,10.16
2017-11-16T09:48:25.906Z,10.01
2017-11-16T09:50:53.453Z,9.85
2017-11-16T09:53:21.138Z,9.99
2017-11-16T09:55:48.657Z,9.99
2017-11-16T09:58:16.181Z,10.04
2017-11-16T10:00:43.774Z,10.11
2017-11-16T10:03:11.320Z,9.97
2017-11-16T10:05:38.899Z,10.01
2017-11-16T10:08:06.422Z,10.21
2017-11-16T10:10:33.994Z,10.23
2017-11-16T10:13:01.585Z,9.87
2017-11-16T10:15:29.124Z,10.12
2017-11-16T10:17:56.658Z,10.29
2017-11-16T10:20:24.334Z,10.08
2017-11-16T10:22:51.863Z,10.27
2017-11-16T10:25:19.478Z,10.04
2017-11-16T10:27:47.142Z,10.15
2017-11-16T10:30:14.743Z,10.19
2017-11-16T10:32:42.262Z,9.90
2017-11-16T10:35:09.865Z,10.20
2017-11-16T10:37:37.396Z,9.79
2017-11-16T10:40:04.938Z,10.11
2017-11-16T10:42:32.546Z,10.04
2017-11-16T10:45:00.065Z,9.94
2017-11-16T10:47:27.603Z,9.92
2017-11-16T10:49:55.164Z,10.07
2017-11-16T10:52:23.202Z,10.18
2017-11-16T10:54:50.722Z,9.97
2017-11-16T10:57:18.254Z,10.10
2017-11-16T10:59:45.909Z,9.87
2017-11-16T11:02:13.450Z,9.91
2017-11-16T11:04:40.978Z,9.91
2017-11-16T11:07:08.519Z,9.69
2017-11-16T11:09:36.465Z,9.94
2017-11-16T11:12:04.003Z,9.68
2017-11-16T11:14:31.534Z,9.64
2017-11-16T11:16:59.393Z,9.57
2017-11-16T11:19:26.916Z,9.75
2017-11-16T11:21:54.443Z,9.74
2017-11-16T11:24:22.003Z,9.68
2017-11-16T11:26:49.666Z,9.65
2017-11-16T11:29:17.204Z,9.56
2017-11-16T11:31:44.722Z,9.30
2017-11-16T11:34:12.293Z,9.47
2017-11-16T11:36:39.811Z,9.58
2017-11-16T11:39:07.336Z,9.65
2017-11-16T11:41:34.991Z,9.56
2017-11-16T11:44:02.505Z,9.55
2017-11-16T11:46:30.030Z,9.49
2017-11-16T11:48:57.622Z,9.35
2017-11-16T11:51:25.147Z,9.80
2017-11-16T11:53:52.809Z,9.82
2017-11-16T11:56:20.506Z,9.77
2017-11-16T11:58:48.030Z,9.74
2017-11-16T12:01:15.557Z,9.56
2017-11-16T12:03:43.101Z,9.57
2017-11-16T12:06:10.678Z,9.33
2017-11-16T12:08:38.207Z,9.37
2017-11-16T12:11:05.726Z,9.52
2017-11-16T12:13:33.313Z,9.79
2017-11-16T12:16:00.842Z,9.53
2017-11-16T12:18:28.365Z,9.52
2017-11-16T12:20:55.941Z,9.42
2017-11-16T12:23:23.458Z,9.37
2017-11-16T12:25:50.989Z,9.65
2017-11-16T12:28:18.753Z,9.47
2017-11-16T12:30:46.450Z,9.41
2017-11-16T12:33:13.995Z,9.25
2017-11-16T12:35:41.882Z,9.20
2017-11-16T12:38:09.424Z,9.17
2017-11-16T12:40:36.958Z,9.21
2017-11-16T12:43:04.642Z,9.09
2017-11-16T12:45:32.178Z,9.05
2017-11-16T12:47:59.728Z,9.28
2017-11-16T12:50:27.430Z,9.51
2017-11-16T12:52:54.995Z,9.34
2017-11-16T12:55:22.575Z,9.23
2017-11-16T12:57:50.158Z,9.42
2017-11-16T13:00:17.683Z,9.36
2017-11-16T13:02:45.212Z,9.33
2017-11-16T13:05:13.108Z,9.25
2017-11-16T13:07:40.627Z,9.23
2017-11-16T13:10:08.151Z,9.31
2017-11-16T13:12:35.716Z,9.41
2017-11-16T13:15:03.297Z,9.34
2017-11-16T13:17:30.810Z,9.59
2017-11-16T13:19:58.336Z,9.57
2017-11-16T13:22:25.910Z,9.15
2017-11-16T13:24:53.425Z,9.18
2017-11-16T13:27:20.950Z,9.22
2017-11-16T13:29:48.906Z,9.24
2017-11-16T13:32:16.431Z,9.15
2017-11-16T13:34:43.965Z,9.13
2017-11-16T13:37:11.550Z,8.98
2017-11-16T13:39:39.071Z,9.17
2017-11-16T13:42:06.587Z,9.14
2017-11-16T13:44:34.175Z,9.06
2017-11-16T13:47:01.693Z,8.95
2017-11-16T13:49:29.248Z,8.92
2017-11-16T13:51:56.828Z,9.02
2017-11-16T13:54:24.359Z,9.04
2017-11-16T13:56:51.985Z,8.93
2017-11-16T13:59:19.582Z,9.05
2017-11-16T14:01:47.114Z,9.09
2017-11-16T14:04:14.647Z,8.90
2017-11-16T14:06:42.211Z,8.96
2017-11-16T14:09:09.734Z,9.10
2017-11-16T14:11:37.599Z,8.85
2017-11-16T14:14:06.038Z,9.11
2017-11-16T14:16:33.569Z,9.05
2017-11-16T14:19:01.132Z,9.06
2017-11-16T14:21:28.663Z,8.88
2017-11-16T14:23:56.229Z,8.97
2017-11-16T14:26:23.866Z,8.84
2017-11-16T14:28:51.402Z,8.94
2017-11-16T14:31:19.357Z,8.91
2017-11-16T14:33:46.899Z,9.00
2017-11-16T14:36:14.433Z,9.07
2017-11-16T14:38:42.407Z,8.92
2017-11-16T14:41:09.943Z,8.94
2017-11-16T14:43:37.469Z,8.83
2017-11-16T14:46:05.579Z,8.70
2017-11-16T14:48:33.107Z,8.84
2017-11-16T14:51:00.641Z,8.92
2017-11-16T14:53:28.319Z,8.69
2017-11-16T14:55:55.841Z,8.49
2017-11-16T14:58:23.449Z,8.71
2017-11-16T15:00:51.059Z,8.93
2017-11-16T15:03:18.577Z,8.84
2017-11-16T15:05:46.096Z,8.95
2017-11-16T15:08:13.665Z,8.88
2017-11-16T15:10:41.185Z,8.81
2017-11-16T15:13:08.705Z,8.81
2017-11-16T15:15:36.691Z,8.96
2017-11-16T15:18:04.214Z,8.81
2017-11-16T15:20:31.728Z,9.03
2017-11-16T15:22:59.440Z,8.78
2017-11-16T15:25:26.974Z,8.69
2017-11-16T15:27:54.493Z,8.71
2017-11-16T15:30:22.038Z,8.94
2017-11-16T15:32:50.008Z,8.98
2017-11-16T15:35:17.538Z,8.76
2017-11-16T15:37:45.068Z,8.81
2017-11-16T15:40:12.718Z,8.77
2017-11-16T15:42:40.234Z,8.76
2017-11-16T15:45:07.766Z,8.78
2017-11-16T15:47:35.767Z,8.75
2017-11-16T15:50:03.316Z,8.78
2017-11-16T15:52:30.844Z,8.87
2017-11-16T15:54:58.427Z,9.14
2017-11-16T15:57:25.950Z,9.01
2017-11-16T15:59:53.461Z,8.79
2017-11-16T16:02:21.034Z,8.68
2017-11-16T16:04:48.572Z,8.66
2017-11-16T16:07:16.108Z,8.78
2017-11-16T16:09:43.706Z,8.73
2017-11-16T16:12:11.263Z,8.82
2017-11-16T16:14:38.790Z,8.77
2017-11-16T16:17:06.396Z,8.83
2017-11-16T16:19:33.923Z,8.90
2017-11-16T16:22:01.455Z,8.86
2017-11-16T16:24:29.242Z,8.92
2017-11-16T16:26:56.794Z,8.86
2017-11-16T16:29:24.345Z,8.76
2017-11-16T16:31:51.915Z,8.98
2017-11-16T16:34:19.456Z,8.88
2017-11-16T16:36:46.979Z,8.90
2017-11-16T16:39:14.694Z,8.72
2017-11-16T16:41:42.224Z,8.70
2017-11-16T16:44:09.757Z,8.83
2017-11-16T16:46:37.307Z,8.71
2017-11-16T16:49:04.851Z,8.69
2017-11-16T16:51:32.411Z,8.81
2017-11-16T16:53:59.940Z,8.86
2017-11-16T16:56:27.539Z,8.86
2017-11-16T16:58:55.129Z,8.68
2017-11-16T17:01:22.667Z,8.59
2017-11-16T17:03:50.414Z,8.58
2017-11-16T17:06:17.934Z,8.76
2017-11-16T17:08:45.455Z,8.74
2017-11-16T17:11:13.238Z,8.79
2017-11-16T17:13:40.762Z,8.81
2017-11-16T17:16:08.286Z,8.78
2017-11-16T17:18:35.836Z,8.92
2017-11-16T17:21:03.439Z,8.95
2017-11-16T17:23:30.974Z,8.92
2017-11-16T17:25:58.554Z,8.80
2017-11-16T17:28:26.159Z,8.74
2017-11-16T17:30:53.714Z,8.80
2017-11-16T17:33:21.248Z,8.78
2017-11-16T17:35:48.798Z,8.86
2017-11-16T17:38:16.327Z,8.89
2017-11-16T17:40:44.009Z,8.89
2017-11-16T17:43:11.535Z,8.85
2017-11-16T17:45:39.085Z,8.93
2017-11-16T17:48:06.688Z,9.05
2017-11-16T17:50:34.236Z,8.93
2017-11-16T17:55:36.505Z,9.03
2017-11-16T17:58:04.059Z,9.06
2017-11-16T18:00:31.597Z,8.93
2017-11-16T18:02:59.182Z,8.94
2017-11-16T18:05:26.715Z,9.12
2017-11-16T18:07:54.242Z,9.16
2017-11-16T18:10:21.839Z,9.13
2017-11-16T18:12:49.391Z,9.05
2017-11-16T18:15:16.941Z,9.02
2017-11-16T18:17:44.484Z,9.09
2017-11-16T18:20:12.163Z,9.02
2017-11-16T18:22:39.734Z,9.09
2017-11-16T18:25:07.267Z,9.02
2017-11-16T18:27:34.877Z,9.05
2017-11-16T18:30:02.406Z,9.12
2017-11-16T18:32:29.950Z,9.09
2017-11-16T18:34:57.635Z,9.13
2017-11-16T18:37:25.169Z,9.16
2017-11-16T18:39:52.695Z,9.05
2017-11-16T18:42:20.282Z,9.07
2017-11-16T18:44:47.833Z,9.05
2017-11-16T18:47:15.471Z,9.21
2017-11-16T18:49:43.033Z,9.09
2017-11-16T18:52:10.549Z,9.12
2017-11-16T18:54:38.144Z,9.09
2017-11-16T18:57:05.681Z,9.10
2017-11-16T18:59:33.298Z,9.17
2017-11-16T19:02:00.874Z,9.19
2017-11-16T19:04:28.389Z,9.32
2017-11-16T19:06:55.919Z,9.32
2017-11-16T19:09:23.907Z,9.39
2017-11-16T19:11:51.434Z,9.31
2017-11-16T19:14:18.970Z,9.45
2017-11-16T19:16:47.022Z,9.42
2017-11-16T19:19:14.555Z,9.40
2017-11-16T19:21:42.077Z,9.41
2017-11-16T19:24:09.725Z,9.45
2017-11-16T19:26:37.263Z,9.41
2017-11-16T19:29:04.794Z,9.38
2017-11-16T19:31:32.352Z,9.55
2017-11-16T19:33:59.925Z,9.44
2017-11-16T19:36:27.454Z,9.55
2017-11-16T19:38:54.979Z,9.44
2017-11-16T19:41:22.526Z,9.69
2017-11-16T19:43:50.055Z,9.36
2017-11-16T19:46:17.917Z,9.39
2017-11-16T19:48:45.466Z,9.41
2017-11-16T19:51:12.986Z,9.40
2017-11-16T19:53:40.544Z,9.36
2017-11-16T19:56:08.081Z,9.42
2017-11-16T19:58:35.658Z,9.46
2017-11-16T20:01:03.198Z,9.55
2017-11-16T20:03:30.791Z,9.57
2017-11-16T20:05:58.328Z,9.52
2017-11-16T20:08:25.849Z,9.68
2017-11-16T20:10:53.395Z,9.47
2017-11-16T20:13:20.925Z,9.55
2017-11-16T20:15:48.503Z,9.45
2017-11-16T20:18:16.030Z,9.49
2017-11-16T20:20:43.562Z,9.64
2017-11-16T20:23:11.229Z,9.88
2017-11-16T20:25:38.756Z,9.58
2017-11-16T20:28:06.288Z,9.52
2017-11-16T20:30:33.837Z,9.71
2017-11-16T20:33:01.361Z,9.67
2017-11-16T20:35:29.261Z,9.70
2017-11-16T20:37:56.797Z,9.77
2017-11-16T20:40:26.260Z,9.73
2017-11-16T20:46:10.442Z,9.52
2017-11-16T20:51:59.852Z,9.75
2017-11-16T20:54:29.922Z,9.64
2017-11-16T20:56:57.458Z,9.87
2017-11-16T20:59:25.453Z,9.65
2017-11-16T21:01:52.988Z,9.68
2017-11-16T21:04:20.517Z,9.49
2017-11-16T21:06:48.069Z,9.58
2017-11-16T21:09:15.726Z,9.74
2017-11-16T21:11:43.262Z,9.54
2017-11-16T21:14:10.800Z,9.57
2017-11-16T21:16:38.473Z,9.47
2017-11-16T21:19:06.017Z,9.55
2017-11-16T21:21:33.558Z,9.68
2017-11-16T21:24:01.512Z,9.80
2017-11-16T21:26:29.033Z,9.82
2017-11-16T21:28:56.557Z,9.60
2017-11-16T21:31:24.524Z,9.49
2017-11-16T21:33:52.062Z,9.30
2017-11-16T21:36:19.615Z,9.25
2017-11-16T21:38:47.206Z,9.17
2017-11-16T21:41:15.753Z,9.15
2017-11-16T21:43:43.310Z,9.11
2017-11-16T21:46:10.889Z,9.19
2017-11-16T21:48:38.432Z,9.23
2017-11-16T21:51:05.960Z,9.19
2017-11-16T21:53:33.513Z,9.16
2017-11-16T21:56:01.029Z,9.15
2017-11-16T21:58:28.958Z,9.16
2017-11-16T22:00:56.477Z,9.16
2017-11-16T22:03:24.002Z,9.13
2017-11-16T22:05:51.599Z,9.07
2017-11-16T22:08:19.126Z,8.99
2017-11-16T22:10:46.646Z,8.94
2017-11-16T22:13:14.185Z,8.99
2017-11-16T22:15:41.718Z,8.91
2017-11-16T22:18:09.266Z,8.81
2017-11-16T22:20:36.795Z,8.71
2017-11-16T22:23:04.353Z,8.55
2017-11-16T22:25:31.895Z,8.48
2017-11-16T22:28:00.331Z,8.46
2017-11-16T22:30:27.858Z,8.43
2017-11-16T22:32:55.370Z,8.57
2017-11-16T22:35:22.961Z,8.52
2017-11-16T22:37:50.481Z,8.39
2017-11-16T22:40:17.998Z,8.63
2017-11-16T22:42:45.558Z,8.49
2017-11-16T22:45:13.084Z,8.32
2017-11-16T22:47:40.728Z,8.27
2017-11-16T22:50:08.247Z,8.20
2017-11-16T22:52:35.803Z,8.16
2017-11-16T22:55:03.354Z,8.08
2017-11-16T22:57:30.873Z,8.06
2017-11-16T22:59:58.583Z,7.98
2017-11-16T23:02:26.102Z,7.91
2017-11-16T23:04:53.625Z,7.82
2017-11-16T23:07:21.227Z,7.74
2017-11-16T23:09:48.765Z,7.67
2017-11-16T23:12:16.290Z,7.59
2017-11-16T23:14:43.909Z,7.51
2017-11-16T23:17:11.451Z,7.48
2017-11-16T23:19:39.486Z,7.40
2017-11-16T23:22:07.020Z,7.39
2017-11-16T23:24:34.546Z,7.47
2017-11-16T23:27:02.487Z,7.56
2017-11-16T23:29:30.005Z,7.57
2017-11-16T23:31:57.521Z,7.53
2017-11-16T23:34:25.170Z,7.44
2017-11-16T23:36:52.708Z,7.66
2017-11-16T23:39:20.242Z,7.67
2017-11-16T23:41:47.833Z,7.48
2017-11-16T23:44:15.360Z,7.41
2017-11-16T23:46:42.888Z,7.26
2017-11-16T23:49:10.439Z,7.15
2017-11-16T23:51:37.962Z,7.15
2017-11-16T23:54:05.635Z,7.09
2017-11-16T23:56:33.161Z,7.05
2017-11-16T23:59:00.692Z,7.00
